sensor_id;sensor_type;location;lat;lon;timestamp;P1;P2;P0
74440;PMS7003;62870;54.692;25.284;2022-10-18T00:04:01;34;30;18.6
74440;PMS7003;62870;54.692;25.284;2022-10-18T00:09:22;35.6;30.2;18
74440;PMS7003;62870;54.692;25.284;2022-10-18T00:14:00;34;28.4;18.2
74440;PMS7003;62870;54.692;25.284;2022-10-18T00:19:28;37;30.8;19.4
74440;PMS7003;62870;54.692;25.284;2022-10-18T00:23:40;31.3;28;16.8
74440;PMS7003;62870;54.692;25.284;2022-10-18T00:29:28;32.6;29.2;18.6
74440;PMS7003;62870;54.692;25.284;2022-10-18T00:33:39;32.8;29.6;19.2
74440;PMS7003;62870;54.692;25.284;2022-10-18T00:39:07;36.2;31.2;19.2
74440;PMS7003;62870;54.692;25.284;2022-10-18T00:44:59;35.4;30.4;19.4
74440;PMS7003;62870;54.692;25.284;2022-10-18T00:49:20;32.2;28.2;18.2
74440;PMS7003;62870;54.692;25.284;2022-10-18T00:53:48;34.2;30;18.4
74440;PMS7003;62870;54.692;25.284;2022-10-18T00:59:15;36;30.8;18.6
74440;PMS7003;62870;54.692;25.284;2022-10-18T01:03:51;38.8;33;20.6
74440;PMS7003;62870;54.692;25.284;2022-10-18T01:09:06;40.8;34.8;22.4
74440;PMS7003;62870;54.692;25.284;2022-10-18T01:14:21;36.2;31.4;19.8
74440;PMS7003;62870;54.692;25.284;2022-10-18T01:19:37;36.6;31.8;20
74440;PMS7003;62870;54.692;25.284;2022-10-18T01:23:46;38.5;33;21.5
74440;PMS7003;62870;54.692;25.284;2022-10-18T01:28:53;32.8;30;20
74440;PMS7003;62870;54.692;25.284;2022-10-18T01:34:25;38.2;31.8;19
74440;PMS7003;62870;54.692;25.284;2022-10-18T01:39:28;33.2;28.6;18.6
74440;PMS7003;62870;54.692;25.284;2022-10-18T01:44:27;29.8;26.4;16.8
74440;PMS7003;62870;54.692;25.284;2022-10-18T01:48:53;34.4;29.2;18.4
74440;PMS7003;62870;54.692;25.284;2022-10-18T01:54:26;30.4;27.4;18.2
74440;PMS7003;62870;54.692;25.284;2022-10-18T01:59:29;30.8;28.4;18.2
74440;PMS7003;62870;54.692;25.284;2022-10-18T02:03:40;31.4;28.4;18
74440;PMS7003;62870;54.692;25.284;2022-10-18T02:09:03;31.2;28.8;18.4
74440;PMS7003;62870;54.692;25.284;2022-10-18T02:14:02;33.2;29.6;18.2
74440;PMS7003;62870;54.692;25.284;2022-10-18T02:18:39;24.8;22.4;14.2
74440;PMS7003;62870;54.692;25.284;2022-10-18T02:24:03;30;26.8;17.5
74440;PMS7003;62870;54.692;25.284;2022-10-18T02:28:39;29.6;27;18.2
74440;PMS7003;62870;54.692;25.284;2022-10-18T02:34:26;33.8;28.4;18.8
74440;PMS7003;62870;54.692;25.284;2022-10-18T02:39:11;28.4;27;16.6
74440;PMS7003;62870;54.692;25.284;2022-10-18T02:43:59;28.6;26.6;18
74440;PMS7003;62870;54.692;25.284;2022-10-18T02:49:29;29.4;26.2;17.2
74440;PMS7003;62870;54.692;25.284;2022-10-18T02:54:15;30.4;28;17.6
74440;PMS7003;62870;54.692;25.284;2022-10-18T02:59:25;30.6;28;18.2
74440;PMS7003;62870;54.692;25.284;2022-10-18T03:04:11;31.8;28.6;18.6
74440;PMS7003;62870;54.692;25.284;2022-10-18T03:08:41;32.4;28.8;19
74440;PMS7003;62870;54.692;25.284;2022-10-18T03:14:27;36.2;30.8;19.8
74440;PMS7003;62870;54.692;25.284;2022-10-18T03:19:31;31.8;29;18.8
74440;PMS7003;62870;54.692;25.284;2022-10-18T03:23:51;35.8;30.8;18.5
74440;PMS7003;62870;54.692;25.284;2022-10-18T03:28:43;30.8;25.4;15.8
74440;PMS7003;62870;54.692;25.284;2022-10-18T03:34:07;31.8;27;17.6
74440;PMS7003;62870;54.692;25.284;2022-10-18T03:38:41;33.6;29;18.6
74440;PMS7003;62870;54.692;25.284;2022-10-18T03:44:19;32.2;28.8;17.8
74440;PMS7003;62870;54.692;25.284;2022-10-18T03:49:31;30.6;28.6;18.8
74440;PMS7003;62870;54.692;25.284;2022-10-18T03:53:41;30.2;27.2;17.4
74440;PMS7003;62870;54.692;25.284;2022-10-18T03:59:07;33.4;28.6;17.8
74440;PMS7003;62870;54.692;25.284;2022-10-18T04:04:29;31.4;28.6;17.6
74440;PMS7003;62870;54.692;25.284;2022-10-18T04:09:29;35.2;29.8;19
74440;PMS7003;62870;54.692;25.284;2022-10-18T04:14:21;32.2;28.8;19
74440;PMS7003;62870;54.692;25.284;2022-10-18T04:19:01;32;30.4;19.2
74440;PMS7003;62870;54.692;25.284;2022-10-18T04:24:31;35.5;32;19.8
74440;PMS7003;62870;54.692;25.284;2022-10-18T04:29:29;27.2;26.4;17
74440;PMS7003;62870;54.692;25.284;2022-10-18T04:33:55;30.6;28.6;18.8
74440;PMS7003;62870;54.692;25.284;2022-10-18T04:39:17;32.8;29.2;18.2
74440;PMS7003;62870;54.692;25.284;2022-10-18T04:43:53;32.8;30;19.2
74440;PMS7003;62870;54.692;25.284;2022-10-18T04:48:53;32.4;29.6;19.4
74440;PMS7003;62870;54.692;25.284;2022-10-18T04:53:41;32.2;29.2;18.2
74440;PMS7003;62870;54.692;25.284;2022-10-18T04:58:53;30;26.4;16.8
74440;PMS7003;62870;54.692;25.284;2022-10-18T05:04:05;32.4;30.2;19
74440;PMS7003;62870;54.692;25.284;2022-10-18T05:09:27;31.4;28.2;18.8
74440;PMS7003;62870;54.692;25.284;2022-10-18T05:14:27;29.6;27.4;17.4
74440;PMS7003;62870;54.692;25.284;2022-10-18T05:18:51;32.8;28.8;19.6
74440;PMS7003;62870;54.692;25.284;2022-10-18T05:24:31;30.2;28.8;19.2
74440;PMS7003;62870;54.692;25.284;2022-10-18T05:29:17;32.8;29.5;19.3
74440;PMS7003;62870;54.692;25.284;2022-10-18T05:33:57;29.4;26;17.4
74440;PMS7003;62870;54.692;25.284;2022-10-18T05:38:43;31.8;29.8;17.8
74440;PMS7003;62870;54.692;25.284;2022-10-18T05:43:55;31.8;28;18.8
74440;PMS7003;62870;54.692;25.284;2022-10-18T05:49:27;30.8;27.4;18.4
74440;PMS7003;62870;54.692;25.284;2022-10-18T05:54:19;30.6;28.2;18.4
74440;PMS7003;62870;54.692;25.284;2022-10-18T05:59:19;27.4;26;15.6
74440;PMS7003;62870;54.692;25.284;2022-10-18T06:04:19;28.2;26;17.2
74440;PMS7003;62870;54.692;25.284;2022-10-18T06:09:17;32.8;28.6;17.4
74440;PMS7003;62870;54.692;25.284;2022-10-18T06:13:43;28.4;26;17
74440;PMS7003;62870;54.692;25.284;2022-10-18T06:19:21;29.2;26;16.8
74440;PMS7003;62870;54.692;25.284;2022-10-18T06:23:43;28.8;26.8;17.6
74440;PMS7003;62870;54.692;25.284;2022-10-18T06:28:43;27.5;25;16
74440;PMS7003;62870;54.692;25.284;2022-10-18T06:33:43;26.6;24.6;15.8
74440;PMS7003;62870;54.692;25.284;2022-10-18T06:39:31;27.2;24.2;16
74440;PMS7003;62870;54.692;25.284;2022-10-18T06:44:21;22.6;20.6;14.8
74440;PMS7003;62870;54.692;25.284;2022-10-18T06:49:19;24;22.6;14.6
74440;PMS7003;62870;54.692;25.284;2022-10-18T06:53:43;22.8;21.4;13.6
74440;PMS7003;62870;54.692;25.284;2022-10-18T06:59:21;18.6;16.8;11
74440;PMS7003;62870;54.692;25.284;2022-10-18T07:04:31;24;20.6;13.2
74440;PMS7003;62870;54.692;25.284;2022-10-18T07:09:07;21.2;19.4;12.2
74440;PMS7003;62870;54.692;25.284;2022-10-18T07:13:41;23.4;20.8;12
74440;PMS7003;62870;54.692;25.284;2022-10-18T07:18:55;21.2;19;11.6
74440;PMS7003;62870;54.692;25.284;2022-10-18T07:24:05;20;18.4;12.4
74440;PMS7003;62870;54.692;25.284;2022-10-18T07:29:10;17.5;16.3;10
74440;PMS7003;62870;54.692;25.284;2022-10-18T07:34:07;17.8;15.8;10.8
74440;PMS7003;62870;54.692;25.284;2022-10-18T07:39:15;16.8;15.2;9.4
74440;PMS7003;62870;54.692;25.284;2022-10-18T07:44:29;18.2;16.2;11.4
74440;PMS7003;62870;54.692;25.284;2022-10-18T07:49:05;19;17.2;11.4
74440;PMS7003;62870;54.692;25.284;2022-10-18T07:54:27;15.4;14.4;10
74440;PMS7003;62870;54.692;25.284;2022-10-18T07:59:29;16.2;14.4;10.6
74440;PMS7003;62870;54.692;25.284;2022-10-18T08:03:49;15.6;14.6;10.2
74440;PMS7003;62870;54.692;25.284;2022-10-18T08:08:55;11.6;10;7.4
74440;PMS7003;62870;54.692;25.284;2022-10-18T08:13:41;8.2;7;5.6
74440;PMS7003;62870;54.692;25.284;2022-10-18T08:19:29;6.8;6.4;4.6
74440;PMS7003;62870;54.692;25.284;2022-10-18T08:24:19;4.6;4.6;3.4
74440;PMS7003;62870;54.692;25.284;2022-10-18T08:29:17;3;3;2.3
74440;PMS7003;62870;54.692;25.284;2022-10-18T08:34:01;3.4;3.2;2.8
74440;PMS7003;62870;54.692;25.284;2022-10-18T08:39:17;1.4;1.4;1.2
74440;PMS7003;62870;54.692;25.284;2022-10-18T08:44:06;2.8;2.6;2
74440;PMS7003;62870;54.692;25.284;2022-10-18T08:48:57;1.2;1;0.8
74440;PMS7003;62870;54.692;25.284;2022-10-18T08:54:03;1.2;1;0.6
74440;PMS7003;62870;54.692;25.284;2022-10-18T08:59:07;0.8;0.8;0.8
74440;PMS7003;62870;54.692;25.284;2022-10-18T09:03:47;1.6;1.4;1
74440;PMS7003;62870;54.692;25.284;2022-10-18T09:09:31;1.4;1;1
74440;PMS7003;62870;54.692;25.284;2022-10-18T09:13:59;1.6;1.6;1.2
74440;PMS7003;62870;54.692;25.284;2022-10-18T09:19:04;2.8;1.6;1.6
74440;PMS7003;62870;54.692;25.284;2022-10-18T09:24:08;1.4;1.2;1.2
74440;PMS7003;62870;54.692;25.284;2022-10-18T09:29:36;1.3;1.3;1
74440;PMS7003;62870;54.692;25.284;2022-10-18T09:34:33;1.4;1.2;0.8
74440;PMS7003;62870;54.692;25.284;2022-10-18T09:39:08;1;1;0.8
74440;PMS7003;62870;54.692;25.284;2022-10-18T09:43:53;2.2;2.2;1.8
74440;PMS7003;62870;54.692;25.284;2022-10-18T09:49:20;2.2;2;1.6
74440;PMS7003;62870;54.692;25.284;2022-10-18T09:53:41;1.2;1.2;1
74440;PMS7003;62870;54.692;25.284;2022-10-18T09:58:55;1.4;1.4;1.2
74440;PMS7003;62870;54.692;25.284;2022-10-18T10:04:29;1.6;1.4;0.8
74440;PMS7003;62870;54.692;25.284;2022-10-18T10:09:30;1.8;1.8;1
74440;PMS7003;62870;54.692;25.284;2022-10-18T10:14:17;2;1.6;1.2
74440;PMS7003;62870;54.692;25.284;2022-10-18T10:19:05;1.4;1.4;1
74440;PMS7003;62870;54.692;25.284;2022-10-18T10:24:33;1.8;1;0.8
74440;PMS7003;62870;54.692;25.284;2022-10-18T10:29:54;1.8;1.6;1.2
74440;PMS7003;62870;54.692;25.284;2022-10-18T10:34:31;2;1.5;1.3
74440;PMS7003;62870;54.692;25.284;2022-10-18T10:39:00;2;1.8;1.6
74440;PMS7003;62870;54.692;25.284;2022-10-18T10:43:41;1.8;1.4;1.4
74440;PMS7003;62870;54.692;25.284;2022-10-18T10:49:38;1.8;1.8;1.2
74440;PMS7003;62870;54.692;25.284;2022-10-18T10:54:21;1.8;1.8;1.4
74440;PMS7003;62870;54.692;25.284;2022-10-18T10:58:41;2;1.4;1
74440;PMS7003;62870;54.692;25.284;2022-10-18T11:04:21;1.4;1.4;1.2
74440;PMS7003;62870;54.692;25.284;2022-10-18T11:08:43;1.4;1.4;1.4
74440;PMS7003;62870;54.692;25.284;2022-10-18T11:13:53;2.6;2.2;1.8
74440;PMS7003;62870;54.692;25.284;2022-10-18T11:19:31;1.8;1.4;1.2
74440;PMS7003;62870;54.692;25.284;2022-10-18T11:24:29;1.8;1.8;1.2
74440;PMS7003;62870;54.692;25.284;2022-10-18T11:28:57;1.4;1.4;1.2
74440;PMS7003;62870;54.692;25.284;2022-10-18T11:34:19;1.5;0.8;0.5
74440;PMS7003;62870;54.692;25.284;2022-10-18T11:39:32;1.2;1;1
74440;PMS7003;62870;54.692;25.284;2022-10-18T11:44:28;1.4;1.4;0.8
74440;PMS7003;62870;54.692;25.284;2022-10-18T11:49:33;1;0.8;0.6
74440;PMS7003;62870;54.692;25.284;2022-10-18T11:54:11;1.8;1.6;1.4
74440;PMS7003;62870;54.692;25.284;2022-10-18T11:59:31;1.4;1.2;1
74440;PMS7003;62870;54.692;25.284;2022-10-18T12:04:32;1.6;1.4;1.4
74440;PMS7003;62870;54.692;25.284;2022-10-18T12:09:04;2.2;1.2;1
74440;PMS7003;62870;54.692;25.284;2022-10-18T12:14:06;0.6;0.4;0.4
74440;PMS7003;62870;54.692;25.284;2022-10-18T12:18:44;1.2;1;0.6
74440;PMS7003;62870;54.692;25.284;2022-10-18T12:24:03;1.4;1.4;1
74440;PMS7003;62870;54.692;25.284;2022-10-18T12:28:57;2.2;1.8;1.4
74440;PMS7003;62870;54.692;25.284;2022-10-18T12:33:52;1.8;1.5;1
74440;PMS7003;62870;54.692;25.284;2022-10-18T12:39:25;1.2;1;0.8
74440;PMS7003;62870;54.692;25.284;2022-10-18T12:44:17;2;1.2;1
74440;PMS7003;62870;54.692;25.284;2022-10-18T12:48:41;1.8;1.6;1.2
74440;PMS7003;62870;54.692;25.284;2022-10-18T12:54:27;1;1;1
74440;PMS7003;62870;54.692;25.284;2022-10-18T12:59:44;1.6;1.2;1
74440;PMS7003;62870;54.692;25.284;2022-10-18T13:04:32;2.4;2;1.6
74440;PMS7003;62870;54.692;25.284;2022-10-18T13:08:41;2;1.8;1.4
74440;PMS7003;62870;54.692;25.284;2022-10-18T13:13:44;1.2;1.2;0.8
74440;PMS7003;62870;54.692;25.284;2022-10-18T13:19:26;1;0.8;0.6
74440;PMS7003;62870;54.692;25.284;2022-10-18T13:24:22;1.2;0.8;0.8
74440;PMS7003;62870;54.692;25.284;2022-10-18T13:29:10;1;0.8;0.8
74440;PMS7003;62870;54.692;25.284;2022-10-18T13:34:22;1.3;1.3;1.3
74440;PMS7003;62870;54.692;25.284;2022-10-18T13:38:59;2.6;1.4;1.2
74440;PMS7003;62870;54.692;25.284;2022-10-18T13:44:10;1.6;1.4;1
74440;PMS7003;62870;54.692;25.284;2022-10-18T13:49:27;1.4;1.4;1.2
74440;PMS7003;62870;54.692;25.284;2022-10-18T13:54:33;2.2;2.2;1.8
74440;PMS7003;62870;54.692;25.284;2022-10-18T13:59:01;2;2;2
74440;PMS7003;62870;54.692;25.284;2022-10-18T14:04:01;3;2;1.8
74440;PMS7003;62870;54.692;25.284;2022-10-18T14:09:02;2.2;1.6;1.4
74440;PMS7003;62870;54.692;25.284;2022-10-18T14:14:29;2.4;2;1.8
74440;PMS7003;62870;54.692;25.284;2022-10-18T14:19:09;2;2;1.6
74440;PMS7003;62870;54.692;25.284;2022-10-18T14:24:06;3.6;2.6;2.2
74440;PMS7003;62870;54.692;25.284;2022-10-18T14:28:41;2;1.8;1.6
74440;PMS7003;62870;54.692;25.284;2022-10-18T14:34:05;2.6;2;1.6
74440;PMS7003;62870;54.692;25.284;2022-10-18T14:39:27;1.3;0.8;0.8
74440;PMS7003;62870;54.692;25.284;2022-10-18T14:44:10;2;1.8;1.4
74440;PMS7003;62870;54.692;25.284;2022-10-18T14:48:41;2;1.8;1.4
74440;PMS7003;62870;54.692;25.284;2022-10-18T14:53:41;0.8;0.8;0.8
74440;PMS7003;62870;54.692;25.284;2022-10-18T14:58:41;2.4;2;2
74440;PMS7003;62870;54.692;25.284;2022-10-18T15:04:08;3.2;2.8;2.2
74440;PMS7003;62870;54.692;25.284;2022-10-18T15:09:05;2.8;2.4;2
74440;PMS7003;62870;54.692;25.284;2022-10-18T15:13:44;2.6;2.6;2.2
74440;PMS7003;62870;54.692;25.284;2022-10-18T15:19:25;3.8;3.2;2.4
74440;PMS7003;62870;54.692;25.284;2022-10-18T15:24:08;2.6;2;1.4
74440;PMS7003;62870;54.692;25.284;2022-10-18T15:29:23;2.6;1.8;1.4
74440;PMS7003;62870;54.692;25.284;2022-10-18T15:34:16;2.6;2.2;1.6
74440;PMS7003;62870;54.692;25.284;2022-10-18T15:39:03;3.8;2.8;2.8
74440;PMS7003;62870;54.692;25.284;2022-10-18T15:43:41;2.4;2;1.6
74440;PMS7003;62870;54.692;25.284;2022-10-18T15:48:41;2;1.8;1.8
74440;PMS7003;62870;54.692;25.284;2022-10-18T15:54:28;4.2;3.6;2.4
74440;PMS7003;62870;54.692;25.284;2022-10-18T15:59:20;1.8;1.6;1.2
74440;PMS7003;62870;54.692;25.284;2022-10-18T16:03:43;2.2;2;1.8
74440;PMS7003;62870;54.692;25.284;2022-10-18T16:08:50;2.6;2.4;1.8
74440;PMS7003;62870;54.692;25.284;2022-10-18T16:14:13;2.8;2.6;1.8
74440;PMS7003;62870;54.692;25.284;2022-10-18T16:19:15;2;2;1.4
74440;PMS7003;62870;54.692;25.284;2022-10-18T16:24:05;1.8;1.8;1.4
74440;PMS7003;62870;54.692;25.284;2022-10-18T16:28:57;2;1.6;1.4
74440;PMS7003;62870;54.692;25.284;2022-10-18T16:33:41;2.6;2.2;1.8
74440;PMS7003;62870;54.692;25.284;2022-10-18T16:38:51;2.8;2;1.8
74440;PMS7003;62870;54.692;25.284;2022-10-18T16:44:15;2;2;1.2
74440;PMS7003;62870;54.692;25.284;2022-10-18T16:49:16;2.8;1.8;1.2
74440;PMS7003;62870;54.692;25.284;2022-10-18T16:53:41;3.4;2.8;1.8
74440;PMS7003;62870;54.692;25.284;2022-10-18T16:59:03;2.8;2.4;1.8
74440;PMS7003;62870;54.692;25.284;2022-10-18T17:04:13;2.4;2.2;1.8
74440;PMS7003;62870;54.692;25.284;2022-10-18T17:09:23;2.8;2.6;2
74440;PMS7003;62870;54.692;25.284;2022-10-18T17:13:51;3;2;1.6
74440;PMS7003;62870;54.692;25.284;2022-10-18T17:18:41;3;2.2;1.8
74440;PMS7003;62870;54.692;25.284;2022-10-18T17:23:55;3;2.4;1.4
74440;PMS7003;62870;54.692;25.284;2022-10-18T17:29:00;4;3;2
74440;PMS7003;62870;54.692;25.284;2022-10-18T17:34:17;3;3;2.2
74440;PMS7003;62870;54.692;25.284;2022-10-18T17:38:57;3.5;2.8;2.3
74440;PMS7003;62870;54.692;25.284;2022-10-18T17:44:13;2.2;2.2;2.2
74440;PMS7003;62870;54.692;25.284;2022-10-18T17:49:25;3.2;2.4;1.8
74440;PMS7003;62870;54.692;25.284;2022-10-18T17:54:01;2;2;1.8
74440;PMS7003;62870;54.692;25.284;2022-10-18T17:59:23;2.8;2.8;2.4
74440;PMS7003;62870;54.692;25.284;2022-10-18T18:04:25;2.6;2.4;2
74440;PMS7003;62870;54.692;25.284;2022-10-18T18:09:04;2.8;2.4;2.2
74440;PMS7003;62870;54.692;25.284;2022-10-18T18:13:55;3.6;3;2
74440;PMS7003;62870;54.692;25.284;2022-10-18T18:18:47;3.6;3;2.2
74440;PMS7003;62870;54.692;25.284;2022-10-18T18:24:25;3.6;3;2.2
74440;PMS7003;62870;54.692;25.284;2022-10-18T18:28:43;3.8;3.4;3
74440;PMS7003;62870;54.692;25.284;2022-10-18T18:34:09;4.4;4;3.4
74440;PMS7003;62870;54.692;25.284;2022-10-18T18:39:15;4.3;4.3;3.5
74440;PMS7003;62870;54.692;25.284;2022-10-18T18:43:43;6;4.6;3.2
74440;PMS7003;62870;54.692;25.284;2022-10-18T18:49:19;5;4.2;3.6
74440;PMS7003;62870;54.692;25.284;2022-10-18T18:54:08;4.8;4.6;3.8
74440;PMS7003;62870;54.692;25.284;2022-10-18T18:59:17;4.8;4.4;3.2
74440;PMS7003;62870;54.692;25.284;2022-10-18T19:04:06;4.8;4;3.2
74440;PMS7003;62870;54.692;25.284;2022-10-18T19:08:41;4.6;4.6;3.6
74440;PMS7003;62870;54.692;25.284;2022-10-18T19:14:25;4.6;3.6;3
74440;PMS7003;62870;54.692;25.284;2022-10-18T19:19:15;5.2;4;3
74440;PMS7003;62870;54.692;25.284;2022-10-18T19:24:17;5.6;4.2;3
74440;PMS7003;62870;54.692;25.284;2022-10-18T19:29:04;5;3.4;2.8
74440;PMS7003;62870;54.692;25.284;2022-10-18T19:34:26;4;3.4;2.6
74440;PMS7003;62870;54.692;25.284;2022-10-18T19:39:11;4.6;3.4;2.6
74440;PMS7003;62870;54.692;25.284;2022-10-18T19:44:05;4.8;3.8;2.3
74440;PMS7003;62870;54.692;25.284;2022-10-18T19:49:03;3.4;3;2.4
74440;PMS7003;62870;54.692;25.284;2022-10-18T19:53:41;4.6;4;2.4
74440;PMS7003;62870;54.692;25.284;2022-10-18T19:58:47;2.6;2.4;1.8
74440;PMS7003;62870;54.692;25.284;2022-10-18T20:04:01;3.8;2.8;2
74440;PMS7003;62870;54.692;25.284;2022-10-18T20:09:07;3;2.8;2.6
74440;PMS7003;62870;54.692;25.284;2022-10-18T20:14:25;3.4;2.8;2.4
74440;PMS7003;62870;54.692;25.284;2022-10-18T20:19:11;3;2.6;2
74440;PMS7003;62870;54.692;25.284;2022-10-18T20:23:47;2.8;2.4;1.8
74440;PMS7003;62870;54.692;25.284;2022-10-18T20:29:23;3.2;2.8;2
74440;PMS7003;62870;54.692;25.284;2022-10-18T20:34:11;4;3.8;2.8
74440;PMS7003;62870;54.692;25.284;2022-10-18T20:39:25;3.4;3;2.6
74440;PMS7003;62870;54.692;25.284;2022-10-18T20:43:41;3;2.8;1.8
74440;PMS7003;62870;54.692;25.284;2022-10-18T20:48:49;4;3;2.4
74440;PMS7003;62870;54.692;25.284;2022-10-18T20:54:23;2.8;2.4;1.8
74440;PMS7003;62870;54.692;25.284;2022-10-18T20:59:17;3.2;2.6;1.8
74440;PMS7003;62870;54.692;25.284;2022-10-18T21:03:49;2.8;2.4;2
74440;PMS7003;62870;54.692;25.284;2022-10-18T21:09:14;3.6;2.4;2
74440;PMS7003;62870;54.692;25.284;2022-10-18T21:14:14;3.4;2.4;2
74440;PMS7003;62870;54.692;25.284;2022-10-18T21:19:09;3.8;3.6;2.2
74440;PMS7003;62870;54.692;25.284;2022-10-18T21:24:23;3.6;2.6;1.8
74440;PMS7003;62870;54.692;25.284;2022-10-18T21:29:23;3.6;2.8;2.2
74440;PMS7003;62870;54.692;25.284;2022-10-18T21:33:56;4.2;3.4;2.4
74440;PMS7003;62870;54.692;25.284;2022-10-18T21:38:49;3;2.8;1.8
74440;PMS7003;62870;54.692;25.284;2022-10-18T21:44:25;4.3;3.3;2.5
74440;PMS7003;62870;54.692;25.284;2022-10-18T21:49:15;3.4;3;2
74440;PMS7003;62870;54.692;25.284;2022-10-18T21:54:27;3.4;2.8;2.2
74440;PMS7003;62870;54.692;25.284;2022-10-18T21:58:55;3.8;3.4;2.6
74440;PMS7003;62870;54.692;25.284;2022-10-18T22:04:25;4;3.6;2.6
74440;PMS7003;62870;54.692;25.284;2022-10-18T22:09:25;3.2;2.8;2.2
74440;PMS7003;62870;54.692;25.284;2022-10-18T22:13:55;4;3.2;2.4
74440;PMS7003;62870;54.692;25.284;2022-10-18T22:19:04;3.6;3.4;2.6
74440;PMS7003;62870;54.692;25.284;2022-10-18T22:23:55;4;3.6;2.4
74440;PMS7003;62870;54.692;25.284;2022-10-18T22:28:56;3.4;2.6;1.8
74440;PMS7003;62870;54.692;25.284;2022-10-18T22:33:51;3.4;3.2;2.6
74440;PMS7003;62870;54.692;25.284;2022-10-18T22:39:05;4;3.8;3.2
74440;PMS7003;62870;54.692;25.284;2022-10-18T22:44:25;5.8;4.5;2.8
74440;PMS7003;62870;54.692;25.284;2022-10-18T22:49:13;5;4;3.2
74440;PMS7003;62870;54.692;25.284;2022-10-18T22:54:01;3.4;3;2.6
74440;PMS7003;62870;54.692;25.284;2022-10-18T22:59:25;3.8;3.6;2.6
74440;PMS7003;62870;54.692;25.284;2022-10-18T23:04:27;4.6;3.6;2.6
74440;PMS7003;62870;54.692;25.284;2022-10-18T23:09:27;4.6;2.8;2.4
74440;PMS7003;62870;54.692;25.284;2022-10-18T23:14:17;4.4;3;2.4
74440;PMS7003;62870;54.692;25.284;2022-10-18T23:18:41;2.6;2.6;2.2
74440;PMS7003;62870;54.692;25.284;2022-10-18T23:24:21;3;3;2.2
74440;PMS7003;62870;54.692;25.284;2022-10-18T23:29:15;3.2;2.8;2
74440;PMS7003;62870;54.692;25.284;2022-10-18T23:33:52;3.8;3;2.2
74440;PMS7003;62870;54.692;25.284;2022-10-18T23:39:09;3.6;3.4;2.6
74440;PMS7003;62870;54.692;25.284;2022-10-18T23:44:01;5;4.5;2.5
74440;PMS7003;62870;54.692;25.284;2022-10-18T23:48:47;6;3.6;2.4
74440;PMS7003;62870;54.692;25.284;2022-10-18T23:54:03;4.2;3.4;2.4
74440;PMS7003;62870;54.692;25.284;2022-10-18T23:58:45;4.6;3.4;2.8
